Time;durP1;ratioP1;P1;durP2;ratioP2;P2;SDS_P1;SDS_P2;PMS_P1;PMS_P2;Temp;Humidity;BMP_temperature;BMP_pressure;BME280_temperature;BME280_humidity;BME280_pressure;Samples;Min_cycle;Max_cycle;Signal;HPM_P1;HPM_P2
2022/04/20 00:01:10;;;;;;;0.57;0.57;;;13.30;59.40;;;;;;20721727;28;20061;-77
2022/04/20 00:11:11;;;;;;;0.85;0.50;;;13.30;59.30;;;;;;20722321;28;20399;-77
2022/04/20 00:21:12;;;;;;;1.05;0.70;;;13.30;59.20;;;;;;20704662;28;20140;-77
2022/04/20 00:31:12;;;;;;;2.05;0.70;;;13.30;59.10;;;;;;20721537;28;20149;-78
2022/04/20 00:41:13;;;;;;;2.45;0.60;;;13.30;59.10;;;;;;20720504;28;20057;-77
2022/04/20 00:51:13;;;;;;;1.52;0.68;;;13.30;59.10;;;;;;20687846;28;20029;-77
2022/04/20 01:01:14;;;;;;;0.77;0.60;;;13.20;59.00;;;;;;20708744;28;20188;-78
2022/04/20 01:11:16;;;;;;;0.98;0.70;;;13.20;58.90;;;;;;20704544;28;20037;-78
2022/04/20 01:21:34;;;;;;;1.52;0.85;;;13.20;58.80;;;;;;20706530;28;20403;-78
2022/04/20 01:31:48;;;;;;;1.35;0.70;;;13.20;58.80;;;;;;20718494;28;20034;-78
2022/04/20 01:42:00;;;;;;;3.65;0.80;;;13.20;58.70;;;;;;20718616;28;20034;-78
2022/04/20 01:52:02;;;;;;;0.95;0.63;;;13.20;58.70;;;;;;20699652;28;20030;-78
2022/04/20 02:02:35;;;;;;;0.70;0.60;;;13.10;58.50;;;;;;20705026;28;20042;-78
2022/04/20 02:12:51;;;;;;;1.80;1.05;;;13.10;58.50;;;;;;20717214;28;20027;-77
2022/04/20 02:23:21;;;;;;;1.17;0.90;;;13.20;58.50;;;;;;20718793;28;20073;-77
2022/04/20 02:33:23;;;;;;;2.10;0.75;;;13.10;58.40;;;;;;21068179;23;20050;-77
2022/04/20 02:43:23;;;;;;;1.23;0.70;;;13.10;58.30;;;;;;20712179;28;20111;-77
2022/04/20 02:53:24;;;;;;;1.27;0.60;;;13.10;58.30;;;;;;20695274;28;20369;-77
2022/04/20 03:03:25;;;;;;;2.13;0.70;;;13.10;58.30;;;;;;20709980;28;20132;-78
2022/04/20 03:13:27;;;;;;;1.08;0.70;;;13.00;58.20;;;;;;20724843;28;20038;-77
2022/04/20 03:23:29;;;;;;;3.30;1.00;;;13.00;58.20;;;;;;20707911;28;20057;-77
2022/04/20 03:33:35;;;;;;;1.38;0.57;;;13.00;58.20;;;;;;20709076;28;20033;-77
2022/04/20 03:43:35;;;;;;;1.63;1.02;;;13.00;58.20;;;;;;20708199;28;20134;-77
2022/04/20 03:53:36;;;;;;;1.05;0.75;;;13.00;58.20;;;;;;20690607;28;20472;-78
2022/04/20 04:03:39;;;;;;;0.95;0.70;;;13.00;58.20;;;;;;20706958;28;20089;-77
2022/04/20 04:13:47;;;;;;;1.27;0.70;;;13.00;58.20;;;;;;20706788;28;20132;-78
2022/04/20 04:23:48;;;;;;;1.80;0.98;;;13.00;58.20;;;;;;20691408;28;20516;-77
2022/04/20 04:33:55;;;;;;;1.75;0.68;;;13.00;58.20;;;;;;20708557;28;20096;-78
2022/04/20 04:43:56;;;;;;;1.48;0.90;;;13.00;58.90;;;;;;20686765;28;20042;-73
2022/04/20 04:53:57;;;;;;;0.95;0.68;;;12.90;58.10;;;;;;20730515;28;20033;-79
2022/04/20 05:04:05;;;;;;;2.85;0.70;;;12.90;58.20;;;;;;20718616;28;20124;-78
2022/04/20 05:14:06;;;;;;;0.85;0.68;;;12.90;58.20;;;;;;20716793;28;20030;-76
2022/04/20 05:24:09;;;;;;;1.17;0.77;;;12.90;58.30;;;;;;20714405;28;20037;-78
2022/04/20 05:34:12;;;;;;;2.05;0.80;;;12.90;58.40;;;;;;20718657;28;20045;-82
2022/04/20 05:44:13;;;;;;;0.98;0.55;;;12.90;58.50;;;;;;20715454;28;20392;-77
2022/04/20 05:54:15;;;;;;;1.30;0.55;;;12.90;58.50;;;;;;20698584;28;20057;-74
2022/04/20 06:04:17;;;;;;;1.70;0.80;;;12.90;58.60;;;;;;20713655;28;20400;-74
2022/04/20 06:14:32;;;;;;;2.83;0.77;;;13.00;58.80;;;;;;20716887;28;20034;-75
2022/04/20 06:24:39;;;;;;;2.13;0.70;;;13.00;58.80;;;;;;20712780;28;20042;-74
2022/04/20 06:34:58;;;;;;;2.28;0.60;;;12.90;58.90;;;;;;20732933;28;20041;-74
2022/04/20 06:45:22;;;;;;;1.33;0.80;;;12.90;58.90;;;;;;20713479;28;20577;-74
2022/04/20 07:06:13;;;;;;;0.57;0.40;;;12.90;59.00;;;;;;20725439;28;20037;-73
2022/04/20 07:16:24;;;;;;;1.45;0.68;;;12.90;59.10;;;;;;20742120;28;20120;-74
2022/04/20 07:26:39;;;;;;;2.10;0.82;;;12.90;59.10;;;;;;20695117;28;20496;-74
2022/04/20 07:36:47;;;;;;;0.75;0.50;;;12.90;59.10;;;;;;20708726;28;20030;-74
2022/04/20 07:47:06;;;;;;;0.88;0.52;;;12.90;59.10;;;;;;20711502;28;20042;-74
2022/04/20 07:57:16;;;;;;;1.33;0.77;;;13.00;59.20;;;;;;20706623;28;20150;-74
2022/04/20 08:07:26;;;;;;;1.52;0.70;;;13.00;59.30;;;;;;20707172;28;20034;-80
2022/04/20 08:17:27;;;;;;;1.92;0.60;;;13.00;59.30;;;;;;20689912;28;20040;-74
2022/04/20 08:27:59;;;;;;;1.52;0.70;;;13.00;59.30;;;;;;20739423;28;20054;-73
2022/04/20 08:38:00;;;;;;;1.23;0.70;;;13.10;60.10;;;;;;20731207;28;20040;-75
2022/04/20 08:48:01;;;;;;;0.68;0.60;;;13.10;59.40;;;;;;20718678;28;20383;-73
2022/04/20 08:58:03;;;;;;;0.85;0.60;;;13.10;59.50;;;;;;20719286;28;20053;-73
2022/04/20 09:08:11;;;;;;;1.88;0.68;;;13.10;59.40;;;;;;20716088;28;20579;-73
2022/04/20 09:18:12;;;;;;;1.30;0.75;;;13.10;59.40;;;;;;20732025;28;20034;-74
2022/04/20 09:28:13;;;;;;;4.82;0.70;;;13.10;59.40;;;;;;20714102;28;20037;-74
2022/04/20 09:38:17;;;;;;;1.60;0.68;;;13.10;59.40;;;;;;20746659;28;20396;-71
2022/04/20 09:48:51;;;;;;;1.60;0.60;;;13.20;59.50;;;;;;20718775;28;20048;-73
2022/04/20 09:59:02;;;;;;;1.30;0.73;;;13.20;59.50;;;;;;20715952;28;20480;-73
2022/04/20 10:09:03;;;;;;;1.00;0.60;;;13.20;59.60;;;;;;20697815;28;20045;-73
2022/04/20 10:19:03;;;;;;;2.97;1.00;;;13.30;59.80;;;;;;20697402;28;20124;-73
2022/04/20 10:29:31;;;;;;;1.63;0.70;;;13.30;59.90;;;;;;20712407;28;20363;-71
2022/04/20 10:39:34;;;;;;;1.05;0.52;;;13.30;60.00;;;;;;20713730;28;20137;-73
2022/04/20 10:49:43;;;;;;;0.47;0.40;;;13.40;60.10;;;;;;20709945;28;20046;-77
2022/04/20 10:59:45;;;;;;;0.90;0.47;;;13.40;60.10;;;;;;20645341;28;20040;-74
2022/04/20 11:09:49;;;;;;;2.50;0.63;;;13.40;60.10;;;;;;20694958;28;20041;-75
2022/04/20 11:19:52;;;;;;;1.35;0.63;;;13.40;60.20;;;;;;20694091;28;20148;-75
2022/04/20 11:29:57;;;;;;;1.08;0.55;;;13.40;60.20;;;;;;20703179;28;20124;-75
2022/04/20 11:39:58;;;;;;;0.70;0.43;;;13.50;60.20;;;;;;20706391;28;20057;-75
2022/04/20 11:49:58;;;;;;;1.10;0.60;;;13.50;60.20;;;;;;20723218;28;20038;-75
2022/04/20 12:00:13;;;;;;;1.27;0.40;;;13.50;60.20;;;;;;20726074;28;20034;-75
2022/04/20 12:10:14;;;;;;;1.65;0.60;;;13.50;60.20;;;;;;20706594;28;20045;-76
2022/04/20 12:20:15;;;;;;;0.70;0.50;;;13.50;60.30;;;;;;20688601;28;20053;-74
2022/04/20 12:30:37;;;;;;;0.82;0.30;;;13.50;60.40;;;;;;20691762;28;20528;-73
2022/04/20 12:40:37;;;;;;;0.30;0.30;;;13.50;60.50;;;;;;20706666;28;20507;-77
2022/04/20 12:50:39;;;;;;;0.63;0.60;;;13.50;60.60;;;;;;20718549;28;20042;-73
2022/04/20 13:10:58;;;;;;;0.60;0.40;;;13.50;60.70;;;;;;20725723;28;20034;-74
2022/04/20 13:20:59;;;;;;;0.87;0.27;;;13.50;60.70;;;;;;20729588;28;20585;-70
2022/04/20 13:31:00;;;;;;;0.77;0.52;;;13.50;60.70;;;;;;20731638;28;20439;-75
2022/04/20 13:41:00;;;;;;;0.68;0.38;;;13.60;60.80;;;;;;20734863;28;20064;-73
2022/04/20 13:51:01;;;;;;;0.52;0.45;;;13.60;60.80;;;;;;20732216;28;20030;-73
2022/04/20 14:01:02;;;;;;;1.10;0.40;;;13.60;60.80;;;;;;20697547;28;20046;-74
2022/04/20 14:11:02;;;;;;;0.40;0.30;;;13.60;60.80;;;;;;20714188;28;20156;-73
2022/04/20 14:21:03;;;;;;;0.97;0.33;;;13.70;60.90;;;;;;20714307;28;20395;-72
2022/04/20 14:41:22;;;;;;;1.63;0.70;;;13.70;60.60;;;;;;20715752;28;20396;-74
2022/04/20 14:51:23;;;;;;;1.42;0.80;;;13.80;60.60;;;;;;20725174;28;20029;-73
2022/04/20 15:01:24;;;;;;;0.65;0.43;;;13.80;60.60;;;;;;20724941;28;20136;-73
2022/04/20 15:11:24;;;;;;;0.70;0.60;;;13.90;60.50;;;;;;20709463;28;20046;-74
2022/04/20 15:21:25;;;;;;;0.73;0.38;;;14.10;60.50;;;;;;20708528;28;20034;-75
2022/04/20 15:31:25;;;;;;;3.47;0.75;;;14.00;60.30;;;;;;20724840;28;20040;-74
2022/04/20 15:41:26;;;;;;;1.30;0.40;;;14.10;60.20;;;;;;20700687;28;20133;-76
2022/04/20 15:51:27;;;;;;;1.00;0.55;;;14.20;60.00;;;;;;20712565;28;20038;-74
2022/04/20 16:01:27;;;;;;;3.03;0.50;;;14.30;59.90;;;;;;20704315;28;20034;-72
2022/04/20 16:11:28;;;;;;;0.80;0.43;;;14.40;59.70;;;;;;20689460;28;20379;-74
2022/04/20 16:21:30;;;;;;;2.03;0.50;;;14.50;59.70;;;;;;20721700;28;20069;-75
2022/04/20 16:31:30;;;;;;;2.47;0.40;;;14.40;59.70;;;;;;20709158;28;20042;-73
2022/04/20 16:41:31;;;;;;;1.40;0.52;;;14.40;59.90;;;;;;20689292;28;20037;-70
2022/04/20 16:51:31;;;;;;;0.60;0.35;;;14.30;60.00;;;;;;20704191;28;20026;-73
2022/04/20 17:01:32;;;;;;;1.52;0.60;;;14.30;60.10;;;;;;20736101;28;20105;-72
2022/04/20 17:11:33;;;;;;;3.15;0.60;;;14.30;60.20;;;;;;20702553;28;20477;-71
2022/04/20 17:31:53;;;;;;;0.55;0.43;;;14.20;60.50;;;;;;20718927;28;20042;-73
2022/04/20 17:41:53;;;;;;;0.80;0.50;;;14.10;60.60;;;;;;20731877;28;20061;-73
2022/04/20 17:51:54;;;;;;;0.60;0.43;;;14.10;60.70;;;;;;20731421;28;20080;-74
2022/04/20 18:01:55;;;;;;;0.60;0.30;;;14.00;60.70;;;;;;20712724;28;20045;-73
2022/04/20 18:11:55;;;;;;;0.77;0.28;;;14.00;61.40;;;;;;20748499;28;20072;-73
2022/04/20 18:21:56;;;;;;;0.35;0.30;;;13.90;60.80;;;;;;20713855;28;20049;-75
2022/04/20 18:31:56;;;;;;;0.68;0.40;;;13.90;60.80;;;;;;20695904;28;20052;-75
2022/04/20 18:41:57;;;;;;;0.50;0.20;;;13.90;60.90;;;;;;20713203;28;20113;-74
2022/04/20 18:51:57;;;;;;;0.40;0.30;;;13.90;61.00;;;;;;20727473;28;20655;-74
2022/04/20 19:01:58;;;;;;;0.65;0.47;;;13.80;61.00;;;;;;20693371;28;20111;-74
2022/04/20 19:12:00;;;;;;;0.20;0.20;;;13.80;61.10;;;;;;20698861;28;20064;-74
2022/04/20 19:22:01;;;;;;;0.50;0.35;;;13.90;61.10;;;;;;20699638;28;20045;-73
2022/04/20 19:32:01;;;;;;;1.38;0.40;;;13.80;61.10;;;;;;20698785;28;20442;-74
2022/04/20 19:42:05;;;;;;;0.50;0.40;;;13.80;61.20;;;;;;20681823;28;20069;-74
2022/04/20 19:52:06;;;;;;;0.82;0.50;;;13.70;61.20;;;;;;20677996;28;20468;-74
2022/04/20 20:02:09;;;;;;;0.50;0.50;;;13.70;61.20;;;;;;20714221;28;20196;-75
2022/04/20 20:12:10;;;;;;;0.40;0.40;;;13.80;61.30;;;;;;20691571;28;20180;-75
2022/04/20 20:22:11;;;;;;;0.93;0.40;;;13.70;61.30;;;;;;20701753;28;20038;-75
2022/04/20 20:32:12;;;;;;;2.30;0.30;;;13.80;61.30;;;;;;20721551;28;20045;-75
2022/04/20 20:42:13;;;;;;;0.55;0.38;;;13.70;61.30;;;;;;20728819;28;20041;-74
2022/04/20 20:52:15;;;;;;;0.40;0.35;;;13.70;61.30;;;;;;20709437;28;20568;-75
2022/04/20 21:02:15;;;;;;;1.17;0.60;;;13.60;61.20;;;;;;20724081;28;20041;-74
2022/04/20 21:12:16;;;;;;;0.82;0.50;;;13.60;61.20;;;;;;20702899;28;20040;-75
2022/04/20 21:22:17;;;;;;;1.77;0.40;;;13.60;61.20;;;;;;20734622;28;20045;-75
2022/04/20 21:32:17;;;;;;;1.23;0.30;;;13.60;61.80;;;;;;20716860;28;20064;-76
2022/04/20 21:42:18;;;;;;;0.70;0.50;;;13.60;61.20;;;;;;20717970;28;20125;-75
2022/04/20 21:52:19;;;;;;;1.17;0.60;;;13.60;61.20;;;;;;20716157;28;20296;-75
2022/04/20 22:12:39;;;;;;;1.08;0.70;;;13.60;61.10;;;;;;20734481;28;20038;-75
2022/04/20 22:22:39;;;;;;;0.93;0.50;;;13.60;61.10;;;;;;20748447;28;20052;-75
2022/04/20 22:32:40;;;;;;;1.10;0.50;;;13.50;61.10;;;;;;20714303;28;20165;-75
2022/04/20 22:42:40;;;;;;;1.70;0.70;;;13.50;61.10;;;;;;20695997;28;20045;-76
2022/04/20 22:52:41;;;;;;;1.40;0.90;;;13.50;61.10;;;;;;20696580;28;20431;-75
2022/04/20 23:02:41;;;;;;;0.90;0.50;;;13.50;61.10;;;;;;20693348;28;20133;-75
2022/04/20 23:12:42;;;;;;;1.38;0.95;;;13.50;61.10;;;;;;20726536;28;20504;-75
2022/04/20 23:22:43;;;;;;;1.20;0.88;;;13.50;61.10;;;;;;20725316;28;20046;-75
2022/04/20 23:32:43;;;;;;;1.08;0.73;;;13.40;61.00;;;;;;20709310;28;20042;-75
2022/04/20 23:42:44;;;;;;;1.27;0.68;;;13.40;60.90;;;;;;20708808;28;20338;-75
2022/04/20 23:52:44;;;;;;;1.05;0.68;;;13.40;60.80;;;;;;20723466;28;20168;-76
